Time;durP1;ratioP1;P1;durP2;ratioP2;P2;SDS_P1;SDS_P2;PMS_P1;PMS_P2;Temp;Humidity;BMP_temperature;BMP_pressure;BME280_temperature;BME280_humidity;BME280_pressure;Samples;Min_cycle;Max_cycle;Signal;HPM_P1;HPM_P2
2023/10/10 00:01:44;;;;;;;12.13;3.92;;;;;;;;;;5095898;28;20023;-69
2023/10/10 00:04:11;;;;;;;13.30;3.70;;;;;;;;;;5095848;28;20395;-69
2023/10/10 00:06:41;;;;;;;12.00;3.60;;;;;;;;;;5095397;28;20481;-69
2023/10/10 00:09:11;;;;;;;9.50;3.90;;;;;;;;;;5095878;28;20039;-69
2023/10/10 00:11:45;;;;;;;9.60;3.63;;;;;;;;;;5095609;28;20046;-69
2023/10/10 00:14:18;;;;;;;12.38;3.58;;;;;;;;;;5095979;28;20354;-69
2023/10/10 00:16:47;;;;;;;12.32;3.85;;;;;;;;;;5093379;28;20028;-69
2023/10/10 00:19:19;;;;;;;8.93;3.75;;;;;;;;;;5095588;28;20028;-69
2023/10/10 00:21:50;;;;;;;7.38;3.70;;;;;;;;;;5076965;28;20032;-69
2023/10/10 00:24:20;;;;;;;12.10;3.80;;;;;;;;;;5095508;28;20015;-69
2023/10/10 00:26:50;;;;;;;14.63;3.93;;;;;;;;;;5095268;28;20032;-68
2023/10/10 00:29:25;;;;;;;9.95;3.80;;;;;;;;;;5095578;28;20028;-69
2023/10/10 00:31:55;;;;;;;10.18;3.92;;;;;;;;;;5094438;28;20020;-69
2023/10/10 00:34:33;;;;;;;10.75;3.85;;;;;;;;;;5094879;28;20031;-68
2023/10/10 00:37:08;;;;;;;12.15;4.05;;;;;;;;;;5095234;28;20473;-69
2023/10/10 00:39:37;;;;;;;9.73;3.35;;;;;;;;;;5095380;28;20069;-69
2023/10/10 00:42:05;;;;;;;13.65;3.40;;;;;;;;;;5095437;28;20032;-69
2023/10/10 00:44:37;;;;;;;10.40;4.03;;;;;;;;;;5095044;28;20401;-69
2023/10/10 00:47:04;;;;;;;10.43;3.88;;;;;;;;;;5095413;28;20026;-69
2023/10/10 00:49:34;;;;;;;9.60;4.07;;;;;;;;;;5094630;28;20530;-69
2023/10/10 00:52:07;;;;;;;10.70;3.95;;;;;;;;;;5094928;28;20488;-69
2023/10/10 00:54:39;;;;;;;14.73;4.07;;;;;;;;;;5094724;28;20052;-69
2023/10/10 00:57:08;;;;;;;12.50;4.25;;;;;;;;;;5095119;28;20028;-69
2023/10/10 00:59:35;;;;;;;9.00;3.95;;;;;;;;;;5094742;28;20016;-69
2023/10/10 01:02:05;;;;;;;8.50;3.60;;;;;;;;;;5094854;28;20032;-69
2023/10/10 01:04:38;;;;;;;13.95;3.75;;;;;;;;;;5094684;28;20020;-69
2023/10/10 01:07:09;;;;;;;8.10;3.83;;;;;;;;;;5094511;28;20028;-68
2023/10/10 01:09:44;;;;;;;11.27;3.65;;;;;;;;;;5076657;28;20030;-69
2023/10/10 01:12:10;;;;;;;9.77;3.85;;;;;;;;;;5094771;28;20054;-68
2023/10/10 01:14:38;;;;;;;12.05;4.47;;;;;;;;;;5093320;28;20020;-68
2023/10/10 01:17:06;;;;;;;5.82;3.10;;;;;;;;;;5094123;28;20034;-69
2023/10/10 01:19:34;;;;;;;12.23;3.78;;;;;;;;;;5094316;28;20024;-68
2023/10/10 01:22:03;;;;;;;11.40;3.78;;;;;;;;;;5094205;28;20032;-69
2023/10/10 01:24:31;;;;;;;14.27;3.63;;;;;;;;;;5094684;28;20020;-68
2023/10/10 01:27:15;;;;;;;16.38;3.80;;;;;;;;;;5094148;28;20038;-68
2023/10/10 01:29:49;;;;;;;13.15;4.07;;;;;;;;;;5074139;28;20030;-69
2023/10/10 01:32:17;;;;;;;9.50;3.95;;;;;;;;;;5073545;28;20027;-68
2023/10/10 01:34:44;;;;;;;8.85;3.83;;;;;;;;;;5073848;28;20016;-69
2023/10/10 01:37:20;;;;;;;8.48;3.70;;;;;;;;;;5073699;28;20538;-69
2023/10/10 01:39:54;;;;;;;11.35;4.43;;;;;;;;;;5073707;28;20034;-69
2023/10/10 01:42:31;;;;;;;11.75;4.45;;;;;;;;;;5073651;28;20029;-69
2023/10/10 01:44:57;;;;;;;13.20;4.10;;;;;;;;;;5073655;28;20073;-68
2023/10/10 01:47:26;;;;;;;10.52;3.63;;;;;;;;;;5072350;28;20039;-70
2023/10/10 01:49:54;;;;;;;9.93;3.70;;;;;;;;;;5073493;28;20040;-68
2023/10/10 01:52:21;;;;;;;8.10;4.05;;;;;;;;;;5073431;28;20025;-71
2023/10/10 01:54:53;;;;;;;10.02;4.82;;;;;;;;;;5073206;28;20043;-70
2023/10/10 01:57:24;;;;;;;10.63;4.03;;;;;;;;;;5073635;28;20036;-70
2023/10/10 01:59:57;;;;;;;11.07;4.25;;;;;;;;;;5073422;28;20527;-70
2023/10/10 02:02:26;;;;;;;12.30;4.07;;;;;;;;;;5072859;28;20408;-70
2023/10/10 02:04:56;;;;;;;9.82;4.07;;;;;;;;;;5073317;28;20024;-70
2023/10/10 02:07:23;;;;;;;11.23;4.70;;;;;;;;;;5073443;28;20027;-70
2023/10/10 02:09:58;;;;;;;8.18;3.63;;;;;;;;;;5073175;28;20034;-70
2023/10/10 02:12:26;;;;;;;15.45;4.78;;;;;;;;;;5073433;28;20032;-70
2023/10/10 02:14:54;;;;;;;12.60;4.28;;;;;;;;;;5072937;28;20013;-71
2023/10/10 02:17:22;;;;;;;9.82;3.63;;;;;;;;;;5092881;28;20030;-70
2023/10/10 02:22:53;;;;;;;10.27;4.18;;;;;;;;;;5030730;28;20055;-70
2023/10/10 02:27:54;;;;;;;8.60;4.15;;;;;;;;;;5030745;28;20073;-70
2023/10/10 02:30:34;;;;;;;11.60;4.20;;;;;;;;;;5030443;28;20025;-70
2023/10/10 02:33:03;;;;;;;10.80;3.80;;;;;;;;;;5030710;28;20043;-70
2023/10/10 02:35:34;;;;;;;13.07;4.57;;;;;;;;;;5030786;28;20031;-70
2023/10/10 02:38:05;;;;;;;11.25;4.38;;;;;;;;;;5030862;28;20041;-70
2023/10/10 02:40:32;;;;;;;;;;;;;;;;;;5030947;28;20033;-70
2023/10/10 02:45:58;;;;;;;12.70;4.70;;;;;;;;;;4971453;28;20035;-70
2023/10/10 02:48:27;;;;;;;10.52;4.18;;;;;;;;;;4971792;28;20386;-70
2023/10/10 02:50:53;;;;;;;12.70;4.05;;;;;;;;;;4971779;28;20027;-70
2023/10/10 02:53:20;;;;;;;9.55;3.83;;;;;;;;;;4971580;28;20420;-70
2023/10/10 02:55:52;;;;;;;11.60;4.43;;;;;;;;;;4971686;28;20053;-70
2023/10/10 02:58:21;;;;;;;10.82;3.88;;;;;;;;;;4972122;28;20480;-70
2023/10/10 03:00:49;;;;;;;10.13;4.15;;;;;;;;;;4990795;28;20035;-70
2023/10/10 03:03:18;;;;;;;9.80;4.45;;;;;;;;;;4991055;28;20048;-70
2023/10/10 03:05:53;;;;;;;9.43;3.85;;;;;;;;;;4991104;28;20026;-70
2023/10/10 03:08:34;;;;;;;13.52;5.07;;;;;;;;;;4991005;28;20054;-70
2023/10/10 03:11:01;;;;;;;9.97;3.73;;;;;;;;;;4991693;28;20027;-70
2023/10/10 03:13:30;;;;;;;10.35;4.40;;;;;;;;;;4990735;28;20030;-70
2023/10/10 03:16:10;;;;;;;10.02;4.00;;;;;;;;;;4990972;28;20041;-70
2023/10/10 03:18:37;;;;;;;7.37;3.80;;;;;;;;;;4991372;28;20034;-70
2023/10/10 03:21:24;;;;;;;14.30;4.47;;;;;;;;;;5011580;28;20040;-70
2023/10/10 03:24:06;;;;;;;14.77;4.38;;;;;;;;;;5052303;28;20405;-70
2023/10/10 03:32:47;;;;;;;11.60;4.20;;;;;;;;;;4971852;28;20037;-70
2023/10/10 03:35:33;;;;;;;11.82;4.03;;;;;;;;;;4971305;28;20049;-70
2023/10/10 03:38:04;;;;;;;8.60;4.10;;;;;;;;;;4971462;28;20019;-70
2023/10/10 03:41:24;;;;;;;9.55;4.50;;;;;;;;;;4971513;28;20093;-70
2023/10/10 05:25:24;;;;;;;8.95;4.25;;;;;;;;;;5093957;28;20016;-69
2023/10/10 05:27:51;;;;;;;12.82;5.65;;;;;;;;;;5094108;28;20016;-69
2023/10/10 05:30:39;;;;;;;12.98;4.72;;;;;;;;;;5094583;28;20030;-69
2023/10/10 05:33:07;;;;;;;9.85;4.20;;;;;;;;;;5094310;28;20060;-70
2023/10/10 05:35:37;;;;;;;12.00;4.45;;;;;;;;;;5094067;28;20016;-70
2023/10/10 05:38:04;;;;;;;10.50;4.35;;;;;;;;;;5094082;28;20061;-69
2023/10/10 05:40:34;;;;;;;10.07;4.57;;;;;;;;;;5093674;28;20032;-70
2023/10/10 05:43:02;;;;;;;9.75;4.20;;;;;;;;;;5093877;28;20036;-70
2023/10/10 05:45:29;;;;;;;7.97;4.20;;;;;;;;;;5094114;28;20016;-70
2023/10/10 05:47:56;;;;;;;13.48;4.40;;;;;;;;;;5093961;28;20028;-70
2023/10/10 05:50:22;;;;;;;16.98;4.38;;;;;;;;;;5093847;28;20020;-69
2023/10/10 05:52:49;;;;;;;9.18;4.35;;;;;;;;;;5093693;28;20020;-69
2023/10/10 05:55:16;;;;;;;14.50;4.28;;;;;;;;;;5092143;28;20050;-69
2023/10/10 05:57:42;;;;;;;19.42;4.40;;;;;;;;;;5093851;28;20032;-69
2023/10/10 06:00:10;;;;;;;12.40;4.70;;;;;;;;;;5096514;28;20016;-70
2023/10/10 06:02:37;;;;;;;18.17;5.63;;;;;;;;;;5113002;28;20035;-70
2023/10/10 06:05:07;;;;;;;10.80;4.38;;;;;;;;;;5113316;28;20022;-70
2023/10/10 06:07:33;;;;;;;13.40;5.00;;;;;;;;;;5110371;28;20031;-70
2023/10/10 06:10:00;;;;;;;10.48;5.47;;;;;;;;;;5092725;28;20024;-70
2023/10/10 06:12:26;;;;;;;17.33;4.68;;;;;;;;;;5093083;28;20032;-70
2023/10/10 06:14:54;;;;;;;12.32;4.90;;;;;;;;;;5094405;28;20068;-69
2023/10/10 06:17:23;;;;;;;14.70;4.65;;;;;;;;;;5091853;28;20024;-69
2023/10/10 06:19:50;;;;;;;16.13;4.60;;;;;;;;;;5074182;28;20337;-69
2023/10/10 06:22:17;;;;;;;13.68;4.15;;;;;;;;;;5091857;28;20036;-69
2023/10/10 06:24:43;;;;;;;9.45;4.05;;;;;;;;;;5092829;28;20050;-68
2023/10/10 06:27:13;;;;;;;13.15;4.50;;;;;;;;;;5092397;28;20016;-69
2023/10/10 06:29:40;;;;;;;13.25;4.28;;;;;;;;;;5092319;28;20035;-70
2023/10/10 06:32:15;;;;;;;13.85;4.13;;;;;;;;;;5092604;28;20024;-70
2023/10/10 06:34:48;;;;;;;16.15;3.88;;;;;;;;;;5088584;28;20056;-70
2023/10/10 06:37:14;;;;;;;10.63;4.05;;;;;;;;;;5091776;28;20032;-70
2023/10/10 06:40:14;;;;;;;8.88;4.80;;;;;;;;;;5091013;28;20031;-69
2023/10/10 06:42:34;;;;;;;13.45;4.65;;;;;;;;;;5088974;28;20040;-68
2023/10/10 06:45:07;;;;;;;14.85;4.25;;;;;;;;;;5091374;28;20034;-70
2023/10/10 06:47:34;;;;;;;12.90;5.15;;;;;;;;;;5091776;28;20493;-70
2023/10/10 06:50:01;;;;;;;11.20;4.05;;;;;;;;;;5087849;28;20031;-70
2023/10/10 06:52:30;;;;;;;21.52;4.82;;;;;;;;;;5090440;28;20030;-70
2023/10/10 06:54:57;;;;;;;12.20;4.50;;;;;;;;;;5091207;28;20055;-70
2023/10/10 06:57:35;;;;;;;8.77;4.38;;;;;;;;;;5090523;28;20435;-70
2023/10/10 07:00:21;;;;;;;11.75;5.18;;;;;;;;;;5091282;28;20032;-70
2023/10/10 07:02:49;;;;;;;13.80;4.70;;;;;;;;;;5089949;28;20044;-70
2023/10/10 07:05:18;;;;;;;10.68;4.50;;;;;;;;;;5089532;28;20034;-69
2023/10/10 07:07:46;;;;;;;15.38;4.40;;;;;;;;;;5091477;28;20030;-70
2023/10/10 07:10:25;;;;;;;10.88;4.30;;;;;;;;;;5091480;28;20008;-70
2023/10/10 07:12:54;;;;;;;9.07;3.78;;;;;;;;;;5090120;28;20031;-70
2023/10/10 07:15:23;;;;;;;12.82;4.75;;;;;;;;;;5095123;28;20016;-70
2023/10/10 07:17:49;;;;;;;13.88;4.30;;;;;;;;;;5099281;28;20034;-70
2023/10/10 07:22:45;;;;;;;21.33;4.88;;;;;;;;;;5089210;28;20043;-69
2023/10/10 07:25:44;;;;;;;14.32;4.43;;;;;;;;;;5092454;28;20069;-70
2023/10/10 07:28:05;;;;;;;11.90;4.20;;;;;;;;;;5092601;28;20036;-70
2023/10/10 07:30:34;;;;;;;9.93;4.68;;;;;;;;;;5095724;28;20077;-70
2023/10/10 07:33:03;;;;;;;11.20;5.18;;;;;;;;;;5094930;28;20036;-70
2023/10/10 07:35:35;;;;;;;10.70;4.90;;;;;;;;;;5094673;28;20020;-70
2023/10/10 07:38:02;;;;;;;10.65;4.65;;;;;;;;;;5074201;28;20036;-70
2023/10/10 07:40:30;;;;;;;14.85;4.72;;;;;;;;;;5088872;28;20514;-70
2023/10/10 07:42:59;;;;;;;14.85;4.68;;;;;;;;;;5093978;28;20038;-69
2023/10/10 07:45:52;;;;;;;13.07;4.68;;;;;;;;;;5094841;28;20395;-69
2023/10/10 07:51:05;;;;;;;11.95;4.85;;;;;;;;;;5083663;28;20024;-70
2023/10/10 07:53:40;;;;;;;10.70;4.72;;;;;;;;;;5094451;28;20484;-70
2023/10/10 07:56:07;;;;;;;8.85;4.78;;;;;;;;;;5094765;28;20034;-70
2023/10/10 07:58:43;;;;;;;14.13;4.75;;;;;;;;;;5094933;28;20024;-71
2023/10/10 08:01:18;;;;;;;18.15;4.78;;;;;;;;;;5094666;28;20023;-70
2023/10/10 08:03:45;;;;;;;17.75;5.18;;;;;;;;;;5094212;28;20040;-71
2023/10/10 08:06:18;;;;;;;22.00;5.50;;;;;;;;;;5094486;28;20054;-70
2023/10/10 08:08:48;;;;;;;27.20;5.90;;;;;;;;;;5094657;28;20024;-71
2023/10/10 08:11:24;;;;;;;27.08;6.00;;;;;;;;;;5094629;28;20032;-71
2023/10/10 08:13:51;;;;;;;22.33;5.30;;;;;;;;;;5094036;28;20050;-70
2023/10/10 08:16:21;;;;;;;11.27;4.90;;;;;;;;;;5076268;28;20032;-69
2023/10/10 08:21:14;;;;;;;9.65;5.03;;;;;;;;;;5094328;28;19914;-69
2023/10/10 08:23:49;;;;;;;9.50;4.38;;;;;;;;;;5094125;28;20046;-70
2023/10/10 08:26:24;;;;;;;8.23;4.95;;;;;;;;;;5094060;28;20016;-71
2023/10/10 08:28:52;;;;;;;17.40;4.72;;;;;;;;;;5092459;28;20477;-71
2023/10/10 08:31:18;;;;;;;14.85;4.82;;;;;;;;;;5076215;28;20426;-70
2023/10/10 08:33:48;;;;;;;15.60;4.80;;;;;;;;;;5093243;28;20084;-70
2023/10/10 08:36:24;;;;;;;10.18;4.88;;;;;;;;;;5093798;28;20404;-70
2023/10/10 08:38:50;;;;;;;8.65;4.38;;;;;;;;;;5075267;28;20423;-70
2023/10/10 08:41:20;;;;;;;8.85;4.82;;;;;;;;;;5094011;28;20020;-70
2023/10/10 08:43:53;;;;;;;8.65;4.45;;;;;;;;;;5073820;28;20048;-70
2023/10/10 08:46:30;;;;;;;10.73;4.20;;;;;;;;;;5088579;28;20024;-70
2023/10/10 08:48:58;;;;;;;13.20;4.82;;;;;;;;;;5093676;28;20020;-70
2023/10/10 08:51:32;;;;;;;12.48;4.88;;;;;;;;;;5093561;28;20024;-71
2023/10/10 08:53:59;;;;;;;12.77;5.20;;;;;;;;;;5110505;28;20042;-70
2023/10/10 08:56:26;;;;;;;12.50;5.20;;;;;;;;;;5094699;28;20028;-70
2023/10/10 08:58:52;;;;;;;12.90;5.07;;;;;;;;;;5093437;28;20012;-69
2023/10/10 09:01:18;;;;;;;9.88;4.40;;;;;;;;;;5093844;28;20031;-71
2023/10/10 09:03:45;;;;;;;10.15;4.57;;;;;;;;;;5093215;28;20038;-70
2023/10/10 09:06:20;;;;;;;14.23;4.63;;;;;;;;;;5093469;28;20050;-71
2023/10/10 09:08:49;;;;;;;10.40;4.40;;;;;;;;;;5093411;28;20042;-71
2023/10/10 09:11:20;;;;;;;13.68;4.53;;;;;;;;;;5093636;28;20049;-70
2023/10/10 09:13:46;;;;;;;;;;;;;;;;;;5093643;28;20481;-70
2023/10/10 09:16:13;;;;;;;11.27;4.80;;;;;;;;;;5092768;28;19916;-71
2023/10/10 09:18:40;;;;;;;9.98;4.50;;;;;;;;;;5093382;28;20766;-71
2023/10/10 09:21:18;;;;;;;8.05;4.47;;;;;;;;;;5092898;28;20028;-69
2023/10/10 09:24:06;;;;;;;8.45;4.40;;;;;;;;;;5092443;28;20028;-71
2023/10/10 09:26:36;;;;;;;13.48;5.00;;;;;;;;;;5082182;28;20031;-71
2023/10/10 09:29:15;;;;;;;8.32;4.45;;;;;;;;;;5092682;28;20038;-70
2023/10/10 09:31:45;;;;;;;13.30;4.97;;;;;;;;;;5083623;28;20030;-70
2023/10/10 09:34:18;;;;;;;11.10;4.32;;;;;;;;;;5092931;28;20028;-70
2023/10/10 09:36:50;;;;;;;11.98;4.70;;;;;;;;;;5092902;28;20477;-71
2023/10/10 09:39:36;;;;;;;12.63;4.43;;;;;;;;;;5073688;28;20027;-71
2023/10/10 09:42:07;;;;;;;10.48;4.32;;;;;;;;;;5092969;28;20020;-70
2023/10/10 09:44:53;;;;;;;11.68;4.35;;;;;;;;;;5093001;28;20384;-70
2023/10/10 09:52:58;;;;;;;11.77;4.40;;;;;;;;;;5092332;28;20020;-70
2023/10/10 10:09:16;;;;;;;22.40;5.22;;;;;;;;;;5071939;28;20397;-71
2023/10/10 10:11:56;;;;;;;28.77;5.63;;;;;;;;;;5071990;28;20106;-71
2023/10/10 10:14:39;;;;;;;17.27;5.37;;;;;;;;;;5070581;28;20029;-71
2023/10/10 10:17:12;;;;;;;19.35;5.45;;;;;;;;;;5089954;28;20024;-71
2023/10/10 10:19:48;;;;;;;38.38;5.72;;;;;;;;;;5091570;28;20020;-71
2023/10/10 10:22:17;;;;;;;36.80;5.75;;;;;;;;;;5091804;28;20020;-71
2023/10/10 10:24:44;;;;;;;39.13;5.85;;;;;;;;;;5074221;28;20024;-71
2023/10/10 10:32:46;;;;;;;25.05;5.45;;;;;;;;;;5091876;28;20024;-71
2023/10/10 10:35:23;;;;;;;26.08;5.57;;;;;;;;;;5091967;28;20036;-71
2023/10/10 10:37:58;;;;;;;29.65;5.45;;;;;;;;;;5092613;28;20388;-71
2023/10/10 10:43:20;;;;;;;27.38;5.50;;;;;;;;;;5091258;28;20500;-71
2023/10/10 10:46:07;;;;;;;22.42;5.15;;;;;;;;;;5091515;28;20038;-72
2023/10/10 10:48:35;;;;;;;16.05;5.03;;;;;;;;;;5092119;28;20020;-71
2023/10/10 10:51:23;;;;;;;23.42;5.00;;;;;;;;;;5091835;28;20028;-71
2023/10/10 10:53:59;;;;;;;35.75;5.75;;;;;;;;;;5091516;28;20382;-71
2023/10/10 10:59:13;;;;;;;16.05;4.85;;;;;;;;;;5091205;28;20447;-71
2023/10/10 11:01:45;;;;;;;25.15;5.40;;;;;;;;;;5091692;28;20016;-71
2023/10/10 11:04:24;;;;;;;27.17;6.03;;;;;;;;;;5090515;28;20040;-72
2023/10/10 11:06:51;;;;;;;18.75;5.03;;;;;;;;;;5091528;28;20023;-71
2023/10/10 11:09:39;;;;;;;22.83;5.30;;;;;;;;;;5092278;28;20058;-71
2023/10/10 11:12:06;;;;;;;18.65;5.20;;;;;;;;;;5099337;28;20068;-71
2023/10/10 11:14:34;;;;;;;11.82;4.18;;;;;;;;;;5112127;28;20026;-70
2023/10/10 11:17:00;;;;;;;21.67;4.32;;;;;;;;;;5092459;28;20026;-71
2023/10/10 11:22:00;;;;;;;12.63;4.55;;;;;;;;;;5091846;28;20077;-71
2023/10/10 11:24:29;;;;;;;16.45;4.78;;;;;;;;;;5091321;28;20549;-71
2023/10/10 11:27:14;;;;;;;14.00;4.00;;;;;;;;;;5091321;28;20020;-69
2023/10/10 11:29:50;;;;;;;11.38;4.22;;;;;;;;;;5071723;28;20031;-69
2023/10/10 11:32:23;;;;;;;11.07;4.38;;;;;;;;;;5072166;28;20021;-69
2023/10/10 11:34:51;;;;;;;22.15;5.15;;;;;;;;;;5090392;28;20089;-67
2023/10/10 11:37:26;;;;;;;19.65;4.78;;;;;;;;;;5091172;28;20063;-71
2023/10/10 11:40:19;;;;;;;14.63;4.35;;;;;;;;;;5091361;28;20035;-71
2023/10/10 11:42:49;;;;;;;12.27;4.50;;;;;;;;;;5052955;28;20025;-70
2023/10/10 11:45:25;;;;;;;19.55;4.80;;;;;;;;;;5071004;28;20491;-69
2023/10/10 11:47:52;;;;;;;9.00;4.07;;;;;;;;;;5071228;28;20036;-69
2023/10/10 11:50:27;;;;;;;17.27;4.63;;;;;;;;;;5070395;28;20483;-72
2023/10/10 11:52:57;;;;;;;17.65;4.40;;;;;;;;;;5072164;28;20043;-71
2023/10/10 11:55:24;;;;;;;10.90;4.22;;;;;;;;;;5072479;28;20062;-70
2023/10/10 11:57:51;;;;;;;17.33;4.18;;;;;;;;;;5091307;28;20023;-69
2023/10/10 12:00:22;;;;;;;12.23;4.20;;;;;;;;;;5091224;28;20023;-71
2023/10/10 12:02:49;;;;;;;12.38;3.70;;;;;;;;;;5088331;28;20024;-70
2023/10/10 12:07:54;;;;;;;13.52;3.95;;;;;;;;;;5082643;28;20046;-71
2023/10/10 12:10:30;;;;;;;20.02;4.60;;;;;;;;;;5090194;28;20480;-70
2023/10/10 12:12:56;;;;;;;16.83;4.40;;;;;;;;;;5091807;28;20089;-69
2023/10/10 12:15:23;;;;;;;7.72;3.72;;;;;;;;;;5098363;28;20027;-68
2023/10/10 12:17:52;;;;;;;10.93;4.55;;;;;;;;;;5092724;28;20034;-70
2023/10/10 12:20:19;;;;;;;14.18;4.60;;;;;;;;;;5093257;28;20069;-70
2023/10/10 12:22:45;;;;;;;13.50;4.28;;;;;;;;;;5094368;28;20102;-70
2023/10/10 12:25:14;;;;;;;9.88;3.50;;;;;;;;;;5093645;28;20020;-70
2023/10/10 12:27:46;;;;;;;15.20;3.70;;;;;;;;;;5094414;28;20073;-69
2023/10/10 12:30:19;;;;;;;15.55;4.38;;;;;;;;;;5094544;28;20012;-70
2023/10/10 12:32:49;;;;;;;12.15;4.18;;;;;;;;;;5093756;28;20034;-70
2023/10/10 12:35:16;;;;;;;13.85;3.78;;;;;;;;;;5093362;28;20020;-70
2023/10/10 12:37:44;;;;;;;16.65;4.30;;;;;;;;;;5093954;28;20403;-70
2023/10/10 12:40:11;;;;;;;11.43;4.47;;;;;;;;;;5093764;28;20023;-70
2023/10/10 12:42:38;;;;;;;12.05;3.97;;;;;;;;;;5075901;28;20046;-70
2023/10/10 12:45:05;;;;;;;15.02;4.53;;;;;;;;;;5093616;28;20513;-71
2023/10/10 12:47:32;;;;;;;13.40;3.95;;;;;;;;;;5093454;28;20378;-70
2023/10/10 12:50:00;;;;;;;12.23;3.40;;;;;;;;;;5093908;28;20481;-70
2023/10/10 12:52:35;;;;;;;11.77;3.53;;;;;;;;;;5093774;28;20054;-70
2023/10/10 12:55:09;;;;;;;10.07;3.75;;;;;;;;;;5062454;28;20041;-71
2023/10/10 12:57:39;;;;;;;6.43;3.42;;;;;;;;;;5053698;28;20039;-70
2023/10/10 13:00:24;;;;;;;9.82;3.42;;;;;;;;;;5053357;28;20516;-70
2023/10/10 13:02:53;;;;;;;7.05;2.75;;;;;;;;;;5054173;28;20067;-69
2023/10/10 13:05:27;;;;;;;4.70;2.63;;;;;;;;;;5053156;28;20025;-69
2023/10/10 13:07:59;;;;;;;6.22;3.10;;;;;;;;;;5052950;28;20013;-69
2023/10/10 13:10:32;;;;;;;7.82;2.80;;;;;;;;;;5053642;28;20040;-71
2023/10/10 13:12:58;;;;;;;9.55;2.78;;;;;;;;;;5053141;28;20545;-71
2023/10/10 13:15:29;;;;;;;7.82;3.22;;;;;;;;;;5056812;28;20485;-71
2023/10/10 13:18:19;;;;;;;8.65;2.83;;;;;;;;;;5053327;28;20374;-70
2023/10/10 13:20:50;;;;;;;7.38;2.50;;;;;;;;;;5052547;28;20017;-70
2023/10/10 13:23:19;;;;;;;7.03;2.50;;;;;;;;;;5045235;28;20047;-70
2023/10/10 13:25:49;;;;;;;3.85;2.15;;;;;;;;;;5033948;28;20059;-69
2023/10/10 13:28:20;;;;;;;7.80;2.78;;;;;;;;;;5024845;28;20025;-71
2023/10/10 13:30:47;;;;;;;6.15;2.42;;;;;;;;;;5051765;28;20013;-71
2023/10/10 13:33:17;;;;;;;6.57;2.53;;;;;;;;;;5051766;28;20039;-70
2023/10/10 13:35:44;;;;;;;4.60;2.35;;;;;;;;;;5052660;28;20033;-70
2023/10/10 13:38:11;;;;;;;5.20;2.30;;;;;;;;;;5050768;28;20029;-68
2023/10/10 13:40:37;;;;;;;3.50;1.92;;;;;;;;;;5052159;28;20044;-71
2023/10/10 13:43:22;;;;;;;3.83;2.03;;;;;;;;;;5051549;28;20025;-70
2023/10/10 13:45:49;;;;;;;4.00;2.40;;;;;;;;;;5034475;28;20508;-69
2023/10/10 13:48:18;;;;;;;5.57;2.28;;;;;;;;;;5051363;28;20031;-71
2023/10/10 13:50:45;;;;;;;5.15;2.22;;;;;;;;;;5051698;28;20019;-71
2023/10/10 13:53:12;;;;;;;6.28;2.35;;;;;;;;;;5052119;28;20487;-70
2023/10/10 13:55:39;;;;;;;13.27;2.83;;;;;;;;;;5073750;28;20036;-70
2023/10/10 13:58:11;;;;;;;7.03;2.35;;;;;;;;;;5072595;28;20032;-69
2023/10/10 14:00:39;;;;;;;6.53;1.88;;;;;;;;;;5071074;28;20015;-70
2023/10/10 14:03:06;;;;;;;4.85;2.20;;;;;;;;;;5072555;28;20086;-70
2023/10/10 14:05:41;;;;;;;11.25;2.22;;;;;;;;;;5058655;28;20033;-70
2023/10/10 14:08:17;;;;;;;5.93;2.28;;;;;;;;;;5064143;28;20028;-70
2023/10/10 14:10:43;;;;;;;9.63;2.22;;;;;;;;;;5071527;28;20024;-70
2023/10/10 14:13:19;;;;;;;9.05;2.20;;;;;;;;;;5068470;28;20063;-69
2023/10/10 14:15:56;;;;;;;5.75;2.17;;;;;;;;;;5092575;28;20028;-70
2023/10/10 14:18:28;;;;;;;5.68;2.22;;;;;;;;;;5092172;28;20047;-69
2023/10/10 14:20:55;;;;;;;6.82;2.40;;;;;;;;;;5091661;28;20020;-70
2023/10/10 14:23:22;;;;;;;3.90;2.05;;;;;;;;;;5091785;28;20036;-69
2023/10/10 14:25:49;;;;;;;7.72;2.53;;;;;;;;;;5073698;28;20032;-68
2023/10/10 14:28:19;;;;;;;8.55;2.28;;;;;;;;;;5092124;28;20031;-69
2023/10/10 14:30:49;;;;;;;6.25;2.00;;;;;;;;;;5090524;28;20026;-69
2023/10/10 14:33:22;;;;;;;5.18;1.98;;;;;;;;;;5091906;28;20099;-69
2023/10/10 14:35:49;;;;;;;6.28;2.30;;;;;;;;;;5089550;28;20030;-69
2023/10/10 14:38:15;;;;;;;6.45;2.15;;;;;;;;;;5091959;28;20020;-69
2023/10/10 14:40:43;;;;;;;3.63;2.05;;;;;;;;;;5092066;28;20032;-70
2023/10/10 14:43:10;;;;;;;7.05;2.40;;;;;;;;;;5074140;28;20027;-70
2023/10/10 14:45:42;;;;;;;11.55;2.65;;;;;;;;;;5091597;28;20032;-70
2023/10/10 14:48:09;;;;;;;5.95;2.38;;;;;;;;;;5073788;28;20028;-68
2023/10/10 14:50:39;;;;;;;6.65;2.28;;;;;;;;;;5091510;28;20381;-69
2023/10/10 14:53:08;;;;;;;6.20;2.60;;;;;;;;;;5091443;28;20040;-69
2023/10/10 14:55:39;;;;;;;8.90;2.38;;;;;;;;;;5091532;28;20048;-69
2023/10/10 14:58:10;;;;;;;6.82;2.15;;;;;;;;;;5091916;28;20027;-69
2023/10/10 15:00:41;;;;;;;8.75;2.30;;;;;;;;;;5091496;28;20028;-69
2023/10/10 15:03:12;;;;;;;6.45;2.40;;;;;;;;;;5091587;28;20489;-69
2023/10/10 15:05:50;;;;;;;12.02;2.78;;;;;;;;;;5088806;28;20008;-70
2023/10/10 15:08:17;;;;;;;9.27;2.50;;;;;;;;;;5091306;28;20027;-69
2023/10/10 15:10:44;;;;;;;10.38;2.78;;;;;;;;;;5091119;28;20020;-70
2023/10/10 15:13:16;;;;;;;11.55;2.45;;;;;;;;;;5089556;28;20024;-69
2023/10/10 15:15:45;;;;;;;11.65;2.55;;;;;;;;;;5098024;28;20027;-71
2023/10/10 15:18:13;;;;;;;14.60;2.73;;;;;;;;;;5093719;28;20495;-71
2023/10/10 15:20:45;;;;;;;11.00;2.50;;;;;;;;;;5090994;28;20480;-70
2023/10/10 15:23:15;;;;;;;13.15;2.95;;;;;;;;;;5073473;28;20036;-69
2023/10/10 15:25:41;;;;;;;;;;;;;;;;;;5091410;28;20027;-69
2023/10/10 15:28:07;;;;;;;9.35;2.53;;;;;;;;;;5090930;28;19908;-70
2023/10/10 15:30:36;;;;;;;12.43;3.00;;;;;;;;;;5090600;28;20035;-69
2023/10/10 15:33:05;;;;;;;17.50;2.90;;;;;;;;;;5090864;28;20048;-69
2023/10/10 15:35:38;;;;;;;14.18;2.70;;;;;;;;;;5091138;28;20020;-69
2023/10/10 15:38:09;;;;;;;21.63;2.75;;;;;;;;;;5091614;28;20477;-70
2023/10/10 15:40:39;;;;;;;5.85;2.33;;;;;;;;;;5091632;28;20024;-70
2023/10/10 15:43:11;;;;;;;13.05;2.28;;;;;;;;;;5090848;28;20042;-70
2023/10/10 15:45:44;;;;;;;11.18;2.30;;;;;;;;;;5089631;28;20160;-69
2023/10/10 15:48:24;;;;;;;8.90;2.25;;;;;;;;;;5095098;28;20020;-69
2023/10/10 15:50:51;;;;;;;10.00;2.53;;;;;;;;;;5095586;28;20020;-68
2023/10/10 15:53:20;;;;;;;9.68;2.83;;;;;;;;;;5095319;28;20038;-68
2023/10/10 15:55:58;;;;;;;9.45;2.95;;;;;;;;;;5094798;28;20503;-69
2023/10/10 15:58:25;;;;;;;11.93;2.20;;;;;;;;;;5095292;28;20028;-70
2023/10/10 16:00:52;;;;;;;12.52;2.35;;;;;;;;;;5095318;28;20030;-70
2023/10/10 16:03:19;;;;;;;5.13;2.25;;;;;;;;;;5094960;28;20377;-69
2023/10/10 16:05:45;;;;;;;7.57;2.33;;;;;;;;;;5095273;28;20029;-69
2023/10/10 16:08:12;;;;;;;9.52;2.90;;;;;;;;;;5094986;28;20024;-69
2023/10/10 16:10:38;;;;;;;16.20;2.38;;;;;;;;;;5095265;28;20485;-69
2023/10/10 16:13:07;;;;;;;6.72;2.35;;;;;;;;;;5095031;28;20035;-69
2023/10/10 16:15:33;;;;;;;10.75;2.70;;;;;;;;;;5095081;28;20032;-70
2023/10/10 16:17:59;;;;;;;7.35;2.95;;;;;;;;;;5094713;28;20092;-72
2023/10/10 16:20:26;;;;;;;12.95;2.42;;;;;;;;;;5076815;28;20076;-72
2023/10/10 16:22:52;;;;;;;8.73;3.05;;;;;;;;;;5094754;28;20020;-72
2023/10/10 16:25:22;;;;;;;9.60;2.70;;;;;;;;;;5094977;28;20028;-72
2023/10/10 16:27:49;;;;;;;13.82;2.50;;;;;;;;;;5094771;28;20031;-71
2023/10/10 16:30:16;;;;;;;7.00;2.58;;;;;;;;;;5094921;28;20396;-72
2023/10/10 16:32:44;;;;;;;8.35;2.63;;;;;;;;;;5094396;28;20027;-72
2023/10/10 16:35:11;;;;;;;7.65;2.83;;;;;;;;;;5095041;28;20030;-71
2023/10/10 16:37:42;;;;;;;11.70;5.15;;;;;;;;;;5094785;28;20030;-71
2023/10/10 16:40:10;;;;;;;10.02;4.93;;;;;;;;;;5095045;28;20058;-72
2023/10/10 16:42:36;;;;;;;9.10;3.38;;;;;;;;;;5094778;28;20046;-71
2023/10/10 16:45:03;;;;;;;12.45;3.33;;;;;;;;;;5076843;28;20044;-72
2023/10/10 16:47:29;;;;;;;10.95;3.10;;;;;;;;;;5094324;28;20024;-71
2023/10/10 16:49:56;;;;;;;13.02;2.90;;;;;;;;;;5094873;28;20372;-71
2023/10/10 16:52:25;;;;;;;17.40;2.95;;;;;;;;;;5094704;28;20035;-71
2023/10/10 16:54:53;;;;;;;9.57;2.67;;;;;;;;;;5094555;28;20044;-71
2023/10/10 16:57:28;;;;;;;10.25;2.40;;;;;;;;;;5094462;28;20034;-71
2023/10/10 16:59:55;;;;;;;11.40;2.30;;;;;;;;;;5094128;28;20028;-72
2023/10/10 17:02:27;;;;;;;36.60;4.38;;;;;;;;;;5094422;28;20077;-71
2023/10/10 17:04:53;;;;;;;19.73;3.08;;;;;;;;;;5093593;28;20100;-71
2023/10/10 17:07:20;;;;;;;13.30;3.10;;;;;;;;;;5093642;28;20031;-71
2023/10/10 17:09:46;;;;;;;10.68;2.88;;;;;;;;;;5094338;28;20023;-71
2023/10/10 17:12:17;;;;;;;8.00;2.78;;;;;;;;;;5093004;28;20040;-71
2023/10/10 17:14:44;;;;;;;12.38;3.13;;;;;;;;;;5093818;28;20032;-71
2023/10/10 17:17:13;;;;;;;9.98;3.20;;;;;;;;;;5094232;28;20072;-71
2023/10/10 17:19:40;;;;;;;15.32;3.28;;;;;;;;;;5094000;28;20036;-71
2023/10/10 17:22:07;;;;;;;10.65;2.70;;;;;;;;;;5094394;28;20096;-71
2023/10/10 17:24:33;;;;;;;12.30;3.53;;;;;;;;;;5094405;28;20018;-71
2023/10/10 17:27:00;;;;;;;11.10;3.17;;;;;;;;;;5093958;28;20020;-71
2023/10/10 17:29:28;;;;;;;20.55;4.35;;;;;;;;;;5073527;28;20023;-71
2023/10/10 17:31:54;;;;;;;25.20;4.97;;;;;;;;;;5074092;28;20074;-71
2023/10/10 17:34:25;;;;;;;27.35;4.25;;;;;;;;;;5073555;28;20051;-71
2023/10/10 17:36:57;;;;;;;21.60;4.20;;;;;;;;;;5073602;28;20020;-71